sensor_id;sensor_type;location;lat;lon;timestamp;temperature;humidity
29185;DHT22;16233;47.964;-3.842;2022-07-22T00:01:30;17.10;11.60
29185;DHT22;16233;47.964;-3.842;2022-07-22T00:03:32;17.00;11.00
29185;DHT22;16233;47.964;-3.842;2022-07-22T00:05:33;17.00;11.50
29185;DHT22;16233;47.964;-3.842;2022-07-22T00:07:34;17.00;12.30
29185;DHT22;16233;47.964;-3.842;2022-07-22T00:09:35;17.00;12.00
29185;DHT22;16233;47.964;-3.842;2022-07-22T00:11:36;17.00;12.50
29185;DHT22;16233;47.964;-3.842;2022-07-22T00:13:37;17.00;12.40
29185;DHT22;16233;47.964;-3.842;2022-07-22T00:15:38;17.00;11.80
29185;DHT22;16233;47.964;-3.842;2022-07-22T00:17:39;16.90;16.50
29185;DHT22;16233;47.964;-3.842;2022-07-22T00:19:42;16.90;16.00
29185;DHT22;16233;47.964;-3.842;2022-07-22T00:21:43;16.90;17.10
29185;DHT22;16233;47.964;-3.842;2022-07-22T00:23:44;16.90;17.10
29185;DHT22;16233;47.964;-3.842;2022-07-22T00:25:45;16.80;16.30
29185;DHT22;16233;47.964;-3.842;2022-07-22T00:27:46;16.80;15.10
29185;DHT22;16233;47.964;-3.842;2022-07-22T00:29:47;16.80;16.90
29185;DHT22;16233;47.964;-3.842;2022-07-22T00:31:48;16.80;20.10
29185;DHT22;16233;47.964;-3.842;2022-07-22T00:33:49;16.70;20.10
29185;DHT22;16233;47.964;-3.842;2022-07-22T00:35:51;16.60;19.30
29185;DHT22;16233;47.964;-3.842;2022-07-22T00:37:52;16.60;19.70
29185;DHT22;16233;47.964;-3.842;2022-07-22T00:39:53;16.60;20.90
29185;DHT22;16233;47.964;-3.842;2022-07-22T00:41:54;16.60;20.20
29185;DHT22;16233;47.964;-3.842;2022-07-22T00:43:59;16.50;20.30
29185;DHT22;16233;47.964;-3.842;2022-07-22T00:46:01;16.60;20.80
29185;DHT22;16233;47.964;-3.842;2022-07-22T00:48:02;16.50;21.50
29185;DHT22;16233;47.964;-3.842;2022-07-22T00:50:04;16.60;21.60
29185;DHT22;16233;47.964;-3.842;2022-07-22T00:52:07;16.60;22.50
29185;DHT22;16233;47.964;-3.842;2022-07-22T00:54:09;16.60;24.20
29185;DHT22;16233;47.964;-3.842;2022-07-22T00:56:10;16.60;25.70
29185;DHT22;16233;47.964;-3.842;2022-07-22T00:58:11;16.60;26.40
29185;DHT22;16233;47.964;-3.842;2022-07-22T01:00:19;16.60;26.40
29185;DHT22;16233;47.964;-3.842;2022-07-22T01:02:20;16.70;29.00
29185;DHT22;16233;47.964;-3.842;2022-07-22T01:04:21;16.70;30.00
29185;DHT22;16233;47.964;-3.842;2022-07-22T01:06:22;16.60;31.40
29185;DHT22;16233;47.964;-3.842;2022-07-22T01:08:25;16.70;29.50
29185;DHT22;16233;47.964;-3.842;2022-07-22T01:10:26;16.70;29.70
29185;DHT22;16233;47.964;-3.842;2022-07-22T01:12:27;16.70;30.30
29185;DHT22;16233;47.964;-3.842;2022-07-22T01:14:28;16.60;32.80
29185;DHT22;16233;47.964;-3.842;2022-07-22T01:16:30;16.60;31.60
29185;DHT22;16233;47.964;-3.842;2022-07-22T01:18:31;16.70;32.50
29185;DHT22;16233;47.964;-3.842;2022-07-22T01:20:34;16.60;34.10
29185;DHT22;16233;47.964;-3.842;2022-07-22T01:22:35;16.60;31.00
29185;DHT22;16233;47.964;-3.842;2022-07-22T01:24:36;16.60;31.70
29185;DHT22;16233;47.964;-3.842;2022-07-22T01:26:37;16.60;32.90
29185;DHT22;16233;47.964;-3.842;2022-07-22T01:28:39;16.60;30.60
29185;DHT22;16233;47.964;-3.842;2022-07-22T01:30:40;16.50;33.60
29185;DHT22;16233;47.964;-3.842;2022-07-22T01:32:41;16.50;33.70
29185;DHT22;16233;47.964;-3.842;2022-07-22T01:34:42;16.50;34.10
29185;DHT22;16233;47.964;-3.842;2022-07-22T01:36:44;16.40;36.70
29185;DHT22;16233;47.964;-3.842;2022-07-22T01:38:45;16.40;39.10
29185;DHT22;16233;47.964;-3.842;2022-07-22T01:40:46;16.30;43.00
29185;DHT22;16233;47.964;-3.842;2022-07-22T01:42:47;16.30;40.30
29185;DHT22;16233;47.964;-3.842;2022-07-22T01:44:48;16.30;38.90
29185;DHT22;16233;47.964;-3.842;2022-07-22T01:46:49;16.20;37.80
29185;DHT22;16233;47.964;-3.842;2022-07-22T01:48:51;16.20;38.50
29185;DHT22;16233;47.964;-3.842;2022-07-22T01:50:52;16.20;39.00
29185;DHT22;16233;47.964;-3.842;2022-07-22T01:52:55;16.20;38.90
29185;DHT22;16233;47.964;-3.842;2022-07-22T01:54:56;16.20;38.50
29185;DHT22;16233;47.964;-3.842;2022-07-22T01:56:57;16.20;40.40
29185;DHT22;16233;47.964;-3.842;2022-07-22T01:58:58;16.10;39.20
29185;DHT22;16233;47.964;-3.842;2022-07-22T02:00:59;16.10;43.50
29185;DHT22;16233;47.964;-3.842;2022-07-22T02:03:00;16.10;42.60
29185;DHT22;16233;47.964;-3.842;2022-07-22T02:05:01;16.10;42.20
29185;DHT22;16233;47.964;-3.842;2022-07-22T02:07:02;16.10;44.60
29185;DHT22;16233;47.964;-3.842;2022-07-22T02:09:05;16.00;45.40
29185;DHT22;16233;47.964;-3.842;2022-07-22T02:11:06;16.00;45.80
29185;DHT22;16233;47.964;-3.842;2022-07-22T02:13:07;16.00;45.30
29185;DHT22;16233;47.964;-3.842;2022-07-22T02:15:09;16.00;45.10
29185;DHT22;16233;47.964;-3.842;2022-07-22T02:17:10;15.90;45.10
29185;DHT22;16233;47.964;-3.842;2022-07-22T02:19:11;15.90;45.00
29185;DHT22;16233;47.964;-3.842;2022-07-22T02:21:12;15.90;45.60
29185;DHT22;16233;47.964;-3.842;2022-07-22T02:23:13;15.90;47.80
29185;DHT22;16233;47.964;-3.842;2022-07-22T02:25:16;15.90;47.30
29185;DHT22;16233;47.964;-3.842;2022-07-22T02:27:17;15.90;47.10
29185;DHT22;16233;47.964;-3.842;2022-07-22T02:29:19;15.80;47.20
29185;DHT22;16233;47.964;-3.842;2022-07-22T02:31:20;15.80;50.60
29185;DHT22;16233;47.964;-3.842;2022-07-22T02:33:21;15.80;51.80
29185;DHT22;16233;47.964;-3.842;2022-07-22T02:35:22;15.80;53.00
29185;DHT22;16233;47.964;-3.842;2022-07-22T02:37:23;15.70;52.00
29185;DHT22;16233;47.964;-3.842;2022-07-22T02:39:24;15.70;55.00
29185;DHT22;16233;47.964;-3.842;2022-07-22T02:41:26;15.70;53.80
29185;DHT22;16233;47.964;-3.842;2022-07-22T02:43:27;15.60;53.70
29185;DHT22;16233;47.964;-3.842;2022-07-22T02:45:28;15.60;54.00
29185;DHT22;16233;47.964;-3.842;2022-07-22T02:47:29;15.60;54.40
29185;DHT22;16233;47.964;-3.842;2022-07-22T02:49:30;15.60;53.10
29185;DHT22;16233;47.964;-3.842;2022-07-22T02:51:31;15.60;52.40
29185;DHT22;16233;47.964;-3.842;2022-07-22T02:53:32;15.50;51.80
29185;DHT22;16233;47.964;-3.842;2022-07-22T02:55:33;15.50;54.20
29185;DHT22;16233;47.964;-3.842;2022-07-22T02:57:36;15.40;55.20
29185;DHT22;16233;47.964;-3.842;2022-07-22T02:59:37;15.40;55.20
29185;DHT22;16233;47.964;-3.842;2022-07-22T03:01:38;15.40;57.50
29185;DHT22;16233;47.964;-3.842;2022-07-22T03:03:39;15.30;56.90
29185;DHT22;16233;47.964;-3.842;2022-07-22T03:05:40;15.30;57.60
29185;DHT22;16233;47.964;-3.842;2022-07-22T03:07:41;15.20;58.70
29185;DHT22;16233;47.964;-3.842;2022-07-22T03:09:42;15.20;59.60
29185;DHT22;16233;47.964;-3.842;2022-07-22T03:11:43;15.10;59.90
29185;DHT22;16233;47.964;-3.842;2022-07-22T03:13:45;15.10;59.90
29185;DHT22;16233;47.964;-3.842;2022-07-22T03:15:46;15.10;60.10
29185;DHT22;16233;47.964;-3.842;2022-07-22T03:17:47;15.00;60.20
29185;DHT22;16233;47.964;-3.842;2022-07-22T03:19:48;15.00;60.20
29185;DHT22;16233;47.964;-3.842;2022-07-22T03:21:49;14.90;60.40
29185;DHT22;16233;47.964;-3.842;2022-07-22T03:23:50;14.80;60.60
29185;DHT22;16233;47.964;-3.842;2022-07-22T03:25:51;14.80;61.30
29185;DHT22;16233;47.964;-3.842;2022-07-22T03:27:52;14.80;61.90
29185;DHT22;16233;47.964;-3.842;2022-07-22T03:29:54;14.80;64.40
29185;DHT22;16233;47.964;-3.842;2022-07-22T03:31:55;14.70;64.60
29185;DHT22;16233;47.964;-3.842;2022-07-22T03:33:56;14.70;65.30
29185;DHT22;16233;47.964;-3.842;2022-07-22T03:35:57;14.70;65.60
29185;DHT22;16233;47.964;-3.842;2022-07-22T03:37:58;14.60;65.80
29185;DHT22;16233;47.964;-3.842;2022-07-22T03:39:59;14.60;67.10
29185;DHT22;16233;47.964;-3.842;2022-07-22T03:42:00;14.60;67.80
29185;DHT22;16233;47.964;-3.842;2022-07-22T03:44:01;14.50;71.20
29185;DHT22;16233;47.964;-3.842;2022-07-22T03:46:04;14.50;74.40
29185;DHT22;16233;47.964;-3.842;2022-07-22T03:48:05;14.40;77.90
29185;DHT22;16233;47.964;-3.842;2022-07-22T03:50:07;14.40;81.40
29185;DHT22;16233;47.964;-3.842;2022-07-22T03:52:08;14.40;83.00
29185;DHT22;16233;47.964;-3.842;2022-07-22T03:54:09;14.40;83.80
29185;DHT22;16233;47.964;-3.842;2022-07-22T03:56:10;14.30;85.10
29185;DHT22;16233;47.964;-3.842;2022-07-22T03:58:11;14.40;86.50
29185;DHT22;16233;47.964;-3.842;2022-07-22T04:00:12;14.30;90.10
29185;DHT22;16233;47.964;-3.842;2022-07-22T04:02:15;14.30;90.50
29185;DHT22;16233;47.964;-3.842;2022-07-22T04:04:16;14.30;91.00
29185;DHT22;16233;47.964;-3.842;2022-07-22T04:06:17;14.20;91.10
29185;DHT22;16233;47.964;-3.842;2022-07-22T04:08:18;14.20;92.10
29185;DHT22;16233;47.964;-3.842;2022-07-22T04:10:19;14.20;94.00
29185;DHT22;16233;47.964;-3.842;2022-07-22T04:12:20;14.20;94.80
29185;DHT22;16233;47.964;-3.842;2022-07-22T04:14:21;14.20;96.40
29185;DHT22;16233;47.964;-3.842;2022-07-22T04:16:22;14.20;98.60
29185;DHT22;16233;47.964;-3.842;2022-07-22T04:18:24;14.20;99.90
29185;DHT22;16233;47.964;-3.842;2022-07-22T04:20:26;14.30;99.90
29185;DHT22;16233;47.964;-3.842;2022-07-22T04:22:27;14.30;99.90
29185;DHT22;16233;47.964;-3.842;2022-07-22T04:24:28;14.30;99.90
29185;DHT22;16233;47.964;-3.842;2022-07-22T04:26:29;14.30;99.90
29185;DHT22;16233;47.964;-3.842;2022-07-22T04:28:32;14.30;99.90
29185;DHT22;16233;47.964;-3.842;2022-07-22T04:30:33;14.20;99.90
29185;DHT22;16233;47.964;-3.842;2022-07-22T04:32:34;14.20;99.90
29185;DHT22;16233;47.964;-3.842;2022-07-22T04:34:38;14.20;99.90
29185;DHT22;16233;47.964;-3.842;2022-07-22T04:36:42;14.20;99.90
29185;DHT22;16233;47.964;-3.842;2022-07-22T04:38:44;14.20;99.90
29185;DHT22;16233;47.964;-3.842;2022-07-22T04:40:45;14.20;99.90
29185;DHT22;16233;47.964;-3.842;2022-07-22T04:42:47;14.30;99.90
29185;DHT22;16233;47.964;-3.842;2022-07-22T04:44:50;14.30;99.90
29185;DHT22;16233;47.964;-3.842;2022-07-22T04:46:56;14.30;99.90
29185;DHT22;16233;47.964;-3.842;2022-07-22T04:48:58;14.30;99.90
29185;DHT22;16233;47.964;-3.842;2022-07-22T04:51:03;14.30;99.90
29185;DHT22;16233;47.964;-3.842;2022-07-22T04:53:04;14.40;99.90
29185;DHT22;16233;47.964;-3.842;2022-07-22T04:55:07;14.40;99.90
29185;DHT22;16233;47.964;-3.842;2022-07-22T04:57:09;14.40;99.90
29185;DHT22;16233;47.964;-3.842;2022-07-22T04:59:12;14.50;99.90
29185;DHT22;16233;47.964;-3.842;2022-07-22T05:01:15;14.50;99.90
29185;DHT22;16233;47.964;-3.842;2022-07-22T05:03:19;14.50;99.90
29185;DHT22;16233;47.964;-3.842;2022-07-22T05:05:21;14.60;99.90
29185;DHT22;16233;47.964;-3.842;2022-07-22T05:07:27;14.60;99.90
29185;DHT22;16233;47.964;-3.842;2022-07-22T05:09:29;14.60;99.90
29185;DHT22;16233;47.964;-3.842;2022-07-22T05:11:32;14.60;99.90
29185;DHT22;16233;47.964;-3.842;2022-07-22T05:13:38;14.60;99.90
29185;DHT22;16233;47.964;-3.842;2022-07-22T05:15:40;14.60;99.90
29185;DHT22;16233;47.964;-3.842;2022-07-22T05:17:41;14.60;99.90
29185;DHT22;16233;47.964;-3.842;2022-07-22T05:19:47;14.60;99.90
29185;DHT22;16233;47.964;-3.842;2022-07-22T05:21:49;14.70;99.90
29185;DHT22;16233;47.964;-3.842;2022-07-22T05:23:52;14.60;99.90
29185;DHT22;16233;47.964;-3.842;2022-07-22T05:25:54;14.70;99.90
29185;DHT22;16233;47.964;-3.842;2022-07-22T05:27:59;14.70;99.90
29185;DHT22;16233;47.964;-3.842;2022-07-22T05:30:01;14.70;99.90
29185;DHT22;16233;47.964;-3.842;2022-07-22T05:32:04;14.70;99.90
29185;DHT22;16233;47.964;-3.842;2022-07-22T05:34:06;14.70;99.90
29185;DHT22;16233;47.964;-3.842;2022-07-22T05:36:09;14.70;99.90
29185;DHT22;16233;47.964;-3.842;2022-07-22T05:38:11;14.70;99.90
29185;DHT22;16233;47.964;-3.842;2022-07-22T05:40:15;14.70;99.90
29185;DHT22;16233;47.964;-3.842;2022-07-22T05:42:20;14.80;99.90
29185;DHT22;16233;47.964;-3.842;2022-07-22T05:44:22;14.80;99.90
29185;DHT22;16233;47.964;-3.842;2022-07-22T05:46:24;14.80;99.90
29185;DHT22;16233;47.964;-3.842;2022-07-22T05:48:26;14.80;99.90
29185;DHT22;16233;47.964;-3.842;2022-07-22T05:50:28;14.80;99.90
29185;DHT22;16233;47.964;-3.842;2022-07-22T05:52:31;14.90;99.90
29185;DHT22;16233;47.964;-3.842;2022-07-22T05:54:33;14.90;99.90
29185;DHT22;16233;47.964;-3.842;2022-07-22T05:56:41;14.90;99.90
29185;DHT22;16233;47.964;-3.842;2022-07-22T05:58:43;15.00;99.90
29185;DHT22;16233;47.964;-3.842;2022-07-22T06:00:48;15.00;99.90
29185;DHT22;16233;47.964;-3.842;2022-07-22T06:02:53;15.00;99.90
29185;DHT22;16233;47.964;-3.842;2022-07-22T06:07:01;15.20;99.90
29185;DHT22;16233;47.964;-3.842;2022-07-22T06:09:04;15.20;99.90
29185;DHT22;16233;47.964;-3.842;2022-07-22T06:11:13;15.20;99.90
29185;DHT22;16233;47.964;-3.842;2022-07-22T06:13:22;15.30;99.90
29185;DHT22;16233;47.964;-3.842;2022-07-22T06:15:25;15.30;99.90
29185;DHT22;16233;47.964;-3.842;2022-07-22T06:17:27;15.30;99.90
29185;DHT22;16233;47.964;-3.842;2022-07-22T06:19:32;15.40;99.90
29185;DHT22;16233;47.964;-3.842;2022-07-22T06:21:33;15.40;99.90
29185;DHT22;16233;47.964;-3.842;2022-07-22T06:23:35;15.50;99.90
29185;DHT22;16233;47.964;-3.842;2022-07-22T06:25:40;15.50;99.90
29185;DHT22;16233;47.964;-3.842;2022-07-22T06:27:45;15.50;99.90
29185;DHT22;16233;47.964;-3.842;2022-07-22T06:29:50;15.60;99.90
29185;DHT22;16233;47.964;-3.842;2022-07-22T06:31:52;15.60;99.90
29185;DHT22;16233;47.964;-3.842;2022-07-22T06:33:55;15.70;99.90
29185;DHT22;16233;47.964;-3.842;2022-07-22T06:36:00;15.70;99.90
29185;DHT22;16233;47.964;-3.842;2022-07-22T06:38:05;15.80;99.90
29185;DHT22;16233;47.964;-3.842;2022-07-22T06:40:08;15.80;99.90
29185;DHT22;16233;47.964;-3.842;2022-07-22T06:42:10;15.90;99.90
29185;DHT22;16233;47.964;-3.842;2022-07-22T06:44:13;16.00;99.90
29185;DHT22;16233;47.964;-3.842;2022-07-22T06:46:22;16.00;99.90
29185;DHT22;16233;47.964;-3.842;2022-07-22T06:48:25;16.10;99.90
29185;DHT22;16233;47.964;-3.842;2022-07-22T06:50:27;16.10;99.90
29185;DHT22;16233;47.964;-3.842;2022-07-22T06:52:30;16.10;99.90
29185;DHT22;16233;47.964;-3.842;2022-07-22T06:54:33;16.10;99.90
29185;DHT22;16233;47.964;-3.842;2022-07-22T06:56:35;16.20;99.90
29185;DHT22;16233;47.964;-3.842;2022-07-22T06:58:41;16.20;99.90
29185;DHT22;16233;47.964;-3.842;2022-07-22T07:00:43;16.30;99.90
29185;DHT22;16233;47.964;-3.842;2022-07-22T07:02:47;16.30;99.90
29185;DHT22;16233;47.964;-3.842;2022-07-22T07:07:01;16.40;99.90
29185;DHT22;16233;47.964;-3.842;2022-07-22T07:09:04;16.50;99.90
29185;DHT22;16233;47.964;-3.842;2022-07-22T07:11:09;16.50;99.90
29185;DHT22;16233;47.964;-3.842;2022-07-22T07:13:11;16.60;99.90
29185;DHT22;16233;47.964;-3.842;2022-07-22T07:15:16;16.60;99.90
29185;DHT22;16233;47.964;-3.842;2022-07-22T07:17:23;16.60;99.90
29185;DHT22;16233;47.964;-3.842;2022-07-22T07:19:28;16.70;99.90
29185;DHT22;16233;47.964;-3.842;2022-07-22T07:21:31;16.70;99.90
29185;DHT22;16233;47.964;-3.842;2022-07-22T07:23:34;16.80;99.90
29185;DHT22;16233;47.964;-3.842;2022-07-22T07:25:40;16.80;99.90
29185;DHT22;16233;47.964;-3.842;2022-07-22T07:27:42;16.80;99.90
29185;DHT22;16233;47.964;-3.842;2022-07-22T07:29:44;16.90;99.90
29185;DHT22;16233;47.964;-3.842;2022-07-22T07:31:50;16.90;99.90
29185;DHT22;16233;47.964;-3.842;2022-07-22T07:33:55;17.00;99.90
29185;DHT22;16233;47.964;-3.842;2022-07-22T07:36:04;17.00;99.90
29185;DHT22;16233;47.964;-3.842;2022-07-22T07:38:10;17.10;99.90
29185;DHT22;16233;47.964;-3.842;2022-07-22T07:40:12;17.10;99.90
29185;DHT22;16233;47.964;-3.842;2022-07-22T07:42:18;17.20;99.90
29185;DHT22;16233;47.964;-3.842;2022-07-22T07:44:21;17.30;99.90
29185;DHT22;16233;47.964;-3.842;2022-07-22T07:46:26;17.40;99.90
29185;DHT22;16233;47.964;-3.842;2022-07-22T07:48:31;17.40;99.90
29185;DHT22;16233;47.964;-3.842;2022-07-22T07:50:36;17.40;99.90
29185;DHT22;16233;47.964;-3.842;2022-07-22T07:52:52;17.50;99.90
29185;DHT22;16233;47.964;-3.842;2022-07-22T07:54:55;17.50;99.90
29185;DHT22;16233;47.964;-3.842;2022-07-22T07:56:58;17.60;99.90
29185;DHT22;16233;47.964;-3.842;2022-07-22T07:59:00;17.70;99.90
29185;DHT22;16233;47.964;-3.842;2022-07-22T08:01:04;17.70;99.90
29185;DHT22;16233;47.964;-3.842;2022-07-22T08:03:07;17.80;99.90
29185;DHT22;16233;47.964;-3.842;2022-07-22T08:05:12;17.90;99.90
29185;DHT22;16233;47.964;-3.842;2022-07-22T08:07:15;17.90;99.90
29185;DHT22;16233;47.964;-3.842;2022-07-22T08:09:24;18.10;99.90
29185;DHT22;16233;47.964;-3.842;2022-07-22T08:11:28;18.10;99.90
29185;DHT22;16233;47.964;-3.842;2022-07-22T08:13:30;18.20;99.90
29185;DHT22;16233;47.964;-3.842;2022-07-22T08:15:33;18.40;99.90
29185;DHT22;16233;47.964;-3.842;2022-07-22T08:17:38;18.50;99.90
29185;DHT22;16233;47.964;-3.842;2022-07-22T08:19:41;18.60;99.90
29185;DHT22;16233;47.964;-3.842;2022-07-22T08:21:44;18.70;99.10
29185;DHT22;16233;47.964;-3.842;2022-07-22T08:23:50;18.70;96.60
29185;DHT22;16233;47.964;-3.842;2022-07-22T08:25:55;18.80;96.90
29185;DHT22;16233;47.964;-3.842;2022-07-22T08:27:58;18.80;96.40
29185;DHT22;16233;47.964;-3.842;2022-07-22T08:30:00;18.90;96.10
29185;DHT22;16233;47.964;-3.842;2022-07-22T08:32:03;18.90;96.00
29185;DHT22;16233;47.964;-3.842;2022-07-22T08:34:06;19.10;95.70
29185;DHT22;16233;47.964;-3.842;2022-07-22T08:36:08;19.20;94.90
29185;DHT22;16233;47.964;-3.842;2022-07-22T08:38:11;19.30;93.40
29185;DHT22;16233;47.964;-3.842;2022-07-22T08:40:16;19.40;93.30
29185;DHT22;16233;47.964;-3.842;2022-07-22T08:42:22;19.50;92.60
29185;DHT22;16233;47.964;-3.842;2022-07-22T08:44:24;19.60;92.70
29185;DHT22;16233;47.964;-3.842;2022-07-22T08:46:27;19.70;90.80
29185;DHT22;16233;47.964;-3.842;2022-07-22T08:48:28;19.90;91.40
29185;DHT22;16233;47.964;-3.842;2022-07-22T08:50:32;20.00;91.00
29185;DHT22;16233;47.964;-3.842;2022-07-22T08:52:36;20.10;90.00
29185;DHT22;16233;47.964;-3.842;2022-07-22T08:54:37;20.20;90.50
29185;DHT22;16233;47.964;-3.842;2022-07-22T08:56:39;20.30;90.20
29185;DHT22;16233;47.964;-3.842;2022-07-22T08:58:43;20.40;87.70
29185;DHT22;16233;47.964;-3.842;2022-07-22T09:00:46;20.60;87.10
29185;DHT22;16233;47.964;-3.842;2022-07-22T09:03:43;20.70;84.60
29185;DHT22;16233;47.964;-3.842;2022-07-22T09:05:44;20.80;83.20
29185;DHT22;16233;47.964;-3.842;2022-07-22T09:07:48;20.90;77.70
29185;DHT22;16233;47.964;-3.842;2022-07-22T09:09:50;21.00;58.50
29185;DHT22;16233;47.964;-3.842;2022-07-22T09:12:04;21.10;47.30
29185;DHT22;16233;47.964;-3.842;2022-07-22T09:14:08;21.20;30.30
29185;DHT22;16233;47.964;-3.842;2022-07-22T09:16:16;21.40;17.40
29185;DHT22;16233;47.964;-3.842;2022-07-22T09:18:18;21.40;1.00
29185;DHT22;16233;47.964;-3.842;2022-07-22T09:20:21;21.50;1.00
29185;DHT22;16233;47.964;-3.842;2022-07-22T09:22:38;21.60;1.00
29185;DHT22;16233;47.964;-3.842;2022-07-22T09:24:39;21.80;1.00
29185;DHT22;16233;47.964;-3.842;2022-07-22T09:26:40;21.90;1.00
29185;DHT22;16233;47.964;-3.842;2022-07-22T09:28:54;22.00;1.00
29185;DHT22;16233;47.964;-3.842;2022-07-22T09:30:57;22.20;1.00
29185;DHT22;16233;47.964;-3.842;2022-07-22T09:32:58;22.30;1.00
29185;DHT22;16233;47.964;-3.842;2022-07-22T09:35:02;22.30;1.00
29185;DHT22;16233;47.964;-3.842;2022-07-22T09:37:06;22.40;1.00
29185;DHT22;16233;47.964;-3.842;2022-07-22T09:39:24;22.50;1.00
29185;DHT22;16233;47.964;-3.842;2022-07-22T09:41:25;22.60;1.00
29185;DHT22;16233;47.964;-3.842;2022-07-22T09:43:26;22.70;1.00
29185;DHT22;16233;47.964;-3.842;2022-07-22T09:45:30;22.70;1.00
29185;DHT22;16233;47.964;-3.842;2022-07-22T09:47:33;22.80;1.00
29185;DHT22;16233;47.964;-3.842;2022-07-22T09:49:36;22.90;1.00
29185;DHT22;16233;47.964;-3.842;2022-07-22T09:51:37;23.00;1.00
29185;DHT22;16233;47.964;-3.842;2022-07-22T09:53:39;23.00;1.00
29185;DHT22;16233;47.964;-3.842;2022-07-22T09:55:40;23.20;1.00
29185;DHT22;16233;47.964;-3.842;2022-07-22T09:57:41;23.30;1.00
29185;DHT22;16233;47.964;-3.842;2022-07-22T09:59:42;23.40;1.00
29185;DHT22;16233;47.964;-3.842;2022-07-22T10:01:43;23.50;1.00
29185;DHT22;16233;47.964;-3.842;2022-07-22T10:03:48;23.60;1.00
29185;DHT22;16233;47.964;-3.842;2022-07-22T10:05:51;23.70;1.00
29185;DHT22;16233;47.964;-3.842;2022-07-22T10:07:54;23.80;1.00
29185;DHT22;16233;47.964;-3.842;2022-07-22T10:09:55;23.80;1.00
29185;DHT22;16233;47.964;-3.842;2022-07-22T10:11:56;23.80;1.00
29185;DHT22;16233;47.964;-3.842;2022-07-22T10:13:57;23.90;1.00
29185;DHT22;16233;47.964;-3.842;2022-07-22T10:15:59;24.10;1.00
29185;DHT22;16233;47.964;-3.842;2022-07-22T10:18:03;24.20;1.00
29185;DHT22;16233;47.964;-3.842;2022-07-22T10:20:07;24.40;1.00
29185;DHT22;16233;47.964;-3.842;2022-07-22T10:24:59;24.60;1.00
29185;DHT22;16233;47.964;-3.842;2022-07-22T10:27:00;24.70;1.00
29185;DHT22;16233;47.964;-3.842;2022-07-22T10:29:24;24.80;1.00
29185;DHT22;16233;47.964;-3.842;2022-07-22T10:31:25;25.00;1.00
29185;DHT22;16233;47.964;-3.842;2022-07-22T10:33:29;25.00;1.00
29185;DHT22;16233;47.964;-3.842;2022-07-22T10:35:33;25.00;1.00
29185;DHT22;16233;47.964;-3.842;2022-07-22T10:37:37;25.10;1.00
29185;DHT22;16233;47.964;-3.842;2022-07-22T10:40:12;25.20;1.00
29185;DHT22;16233;47.964;-3.842;2022-07-22T10:42:13;25.30;1.00
29185;DHT22;16233;47.964;-3.842;2022-07-22T10:44:46;25.50;1.00
29185;DHT22;16233;47.964;-3.842;2022-07-22T10:46:48;25.70;1.00
29185;DHT22;16233;47.964;-3.842;2022-07-22T10:48:51;25.90;1.00
29185;DHT22;16233;47.964;-3.842;2022-07-22T10:51:10;26.10;1.00
29185;DHT22;16233;47.964;-3.842;2022-07-22T10:53:13;26.20;1.00
29185;DHT22;16233;47.964;-3.842;2022-07-22T10:55:19;26.10;1.00
29185;DHT22;16233;47.964;-3.842;2022-07-22T10:57:30;26.30;1.00
29185;DHT22;16233;47.964;-3.842;2022-07-22T10:59:31;26.30;1.00
29185;DHT22;16233;47.964;-3.842;2022-07-22T11:01:32;26.30;1.00
29185;DHT22;16233;47.964;-3.842;2022-07-22T11:03:34;26.40;1.00
29185;DHT22;16233;47.964;-3.842;2022-07-22T11:05:35;26.60;1.00
29185;DHT22;16233;47.964;-3.842;2022-07-22T11:07:42;26.80;1.00
29185;DHT22;16233;47.964;-3.842;2022-07-22T11:09:43;26.90;1.00
29185;DHT22;16233;47.964;-3.842;2022-07-22T11:11:46;27.00;1.00
29185;DHT22;16233;47.964;-3.842;2022-07-22T11:13:47;27.00;1.00
29185;DHT22;16233;47.964;-3.842;2022-07-22T11:15:48;27.20;1.00
29185;DHT22;16233;47.964;-3.842;2022-07-22T11:17:49;27.40;1.00
29185;DHT22;16233;47.964;-3.842;2022-07-22T11:19:51;27.60;1.00
29185;DHT22;16233;47.964;-3.842;2022-07-22T11:21:53;27.70;1.00
29185;DHT22;16233;47.964;-3.842;2022-07-22T11:23:57;27.80;1.00
29185;DHT22;16233;47.964;-3.842;2022-07-22T11:26:00;27.80;1.00
29185;DHT22;16233;47.964;-3.842;2022-07-22T11:28:01;28.00;1.00
29185;DHT22;16233;47.964;-3.842;2022-07-22T11:30:04;28.00;1.00
29185;DHT22;16233;47.964;-3.842;2022-07-22T11:32:07;28.10;1.00
29185;DHT22;16233;47.964;-3.842;2022-07-22T11:34:09;28.20;1.00
29185;DHT22;16233;47.964;-3.842;2022-07-22T11:36:11;28.30;1.00
29185;DHT22;16233;47.964;-3.842;2022-07-22T11:38:12;28.20;1.00
29185;DHT22;16233;47.964;-3.842;2022-07-22T11:40:15;28.10;1.00
29185;DHT22;16233;47.964;-3.842;2022-07-22T11:42:16;28.10;1.00
29185;DHT22;16233;47.964;-3.842;2022-07-22T11:44:20;28.00;1.00
29185;DHT22;16233;47.964;-3.842;2022-07-22T11:46:22;28.20;1.00
29185;DHT22;16233;47.964;-3.842;2022-07-22T11:48:23;28.20;1.00
29185;DHT22;16233;47.964;-3.842;2022-07-22T11:50:30;28.10;1.00
29185;DHT22;16233;47.964;-3.842;2022-07-22T11:52:31;28.20;1.00
29185;DHT22;16233;47.964;-3.842;2022-07-22T11:54:32;28.40;1.00
29185;DHT22;16233;47.964;-3.842;2022-07-22T11:56:35;28.40;1.00
29185;DHT22;16233;47.964;-3.842;2022-07-22T11:58:41;28.60;1.00
29185;DHT22;16233;47.964;-3.842;2022-07-22T12:00:43;28.80;1.00
29185;DHT22;16233;47.964;-3.842;2022-07-22T12:02:44;29.00;1.00
29185;DHT22;16233;47.964;-3.842;2022-07-22T12:04:46;29.20;1.00
29185;DHT22;16233;47.964;-3.842;2022-07-22T12:06:48;29.10;1.00
29185;DHT22;16233;47.964;-3.842;2022-07-22T12:08:51;29.10;1.00
29185;DHT22;16233;47.964;-3.842;2022-07-22T12:10:55;29.20;1.00
29185;DHT22;16233;47.964;-3.842;2022-07-22T12:12:58;29.30;1.00
29185;DHT22;16233;47.964;-3.842;2022-07-22T12:14:59;29.50;1.00
29185;DHT22;16233;47.964;-3.842;2022-07-22T12:17:01;29.50;1.00
29185;DHT22;16233;47.964;-3.842;2022-07-22T12:19:04;29.50;1.00
29185;DHT22;16233;47.964;-3.842;2022-07-22T12:21:06;29.80;1.00
29185;DHT22;16233;47.964;-3.842;2022-07-22T12:23:07;30.00;1.00
29185;DHT22;16233;47.964;-3.842;2022-07-22T12:25:08;30.10;1.00
29185;DHT22;16233;47.964;-3.842;2022-07-22T12:27:10;30.00;1.00
29185;DHT22;16233;47.964;-3.842;2022-07-22T12:29:18;29.90;1.00
29185;DHT22;16233;47.964;-3.842;2022-07-22T12:31:19;29.90;1.00
29185;DHT22;16233;47.964;-3.842;2022-07-22T12:33:21;29.90;1.00
29185;DHT22;16233;47.964;-3.842;2022-07-22T12:35:23;30.00;1.00
29185;DHT22;16233;47.964;-3.842;2022-07-22T12:37:26;30.20;1.00
29185;DHT22;16233;47.964;-3.842;2022-07-22T12:39:27;30.30;1.00
29185;DHT22;16233;47.964;-3.842;2022-07-22T12:41:28;30.50;1.00
29185;DHT22;16233;47.964;-3.842;2022-07-22T12:43:29;30.50;1.00
29185;DHT22;16233;47.964;-3.842;2022-07-22T12:45:33;30.50;1.00
29185;DHT22;16233;47.964;-3.842;2022-07-22T12:47:48;30.60;1.00
29185;DHT22;16233;47.964;-3.842;2022-07-22T12:49:49;30.50;1.00
29185;DHT22;16233;47.964;-3.842;2022-07-22T12:52:07;30.50;1.00
29185;DHT22;16233;47.964;-3.842;2022-07-22T12:54:08;30.60;1.00
29185;DHT22;16233;47.964;-3.842;2022-07-22T12:56:09;30.70;1.00